sensor_id;sensor_type;location;lat;lon;timestamp;pressure;altitude;pressure_sealevel;temperature;humidity
3844;BME280;1937;51.444;6.484;2022-12-26T00:01:22;110676.84;;;11.26;100.00
3844;BME280;1937;51.444;6.484;2022-12-26T00:03:51;110028.75;;;11.36;100.00
3844;BME280;1937;51.444;6.484;2022-12-26T00:06:21;108319.59;;;11.15;100.00
3844;BME280;1937;51.444;6.484;2022-12-26T00:08:53;108320.53;;;11.15;100.00
3844;BME280;1937;51.444;6.484;2022-12-26T00:11:23;109000.97;;;11.22;100.00
3844;BME280;1937;51.444;6.484;2022-12-26T00:13:55;108660.75;;;11.19;100.00
3844;BME280;1937;51.444;6.484;2022-12-26T00:16:24;108329.78;;;11.20;100.00
3844;BME280;1937;51.444;6.484;2022-12-26T00:18:53;108981.44;;;11.12;100.00
3844;BME280;1937;51.444;6.484;2022-12-26T00:21:21;109337.56;;;11.24;100.00
3844;BME280;1937;51.444;6.484;2022-12-26T00:23:55;108993.53;;;11.18;100.00
3844;BME280;1937;51.444;6.484;2022-12-26T00:26:26;108302.06;;;11.05;100.00
3844;BME280;1937;51.444;6.484;2022-12-26T00:28:56;108952.59;;;10.96;100.00
3844;BME280;1937;51.444;6.484;2022-12-26T00:31:26;109328.25;;;11.19;100.00
3844;BME280;1937;51.444;6.484;2022-12-26T00:33:56;108648.69;;;11.12;100.00
3844;BME280;1937;51.444;6.484;2022-12-26T00:36:27;108287.25;;;10.97;100.00
3844;BME280;1937;51.444;6.484;2022-12-26T00:39:01;109301.19;;;11.04;100.00
3844;BME280;1937;51.444;6.484;2022-12-26T00:41:30;109274.16;;;10.89;100.00
3844;BME280;1937;51.444;6.484;2022-12-26T00:43:59;110654.19;;;11.14;100.00
3844;BME280;1937;51.444;6.484;2022-12-26T00:46:28;108962.84;;;11.01;100.00
3844;BME280;1937;51.444;6.484;2022-12-26T00:48:56;109644.25;;;11.09;100.00
3844;BME280;1937;51.444;6.484;2022-12-26T00:51:25;109294.66;;;11.00;100.00
3844;BME280;1937;51.444;6.484;2022-12-26T00:53:53;109628.38;;;11.00;100.00
3844;BME280;1937;51.444;6.484;2022-12-26T00:56:24;109317.06;;;11.13;100.00
3844;BME280;1937;51.444;6.484;2022-12-26T00:58:52;108623.63;;;10.98;100.00
3844;BME280;1937;51.444;6.484;2022-12-26T01:01:23;108952.59;;;10.96;100.00
3844;BME280;1937;51.444;6.484;2022-12-26T01:03:52;109624.59;;;10.98;100.00
3844;BME280;1937;51.444;6.484;2022-12-26T01:06:21;109632.09;;;11.02;100.00
3844;BME280;1937;51.444;6.484;2022-12-26T01:08:49;109626.50;;;10.99;100.00
3844;BME280;1937;51.444;6.484;2022-12-26T01:11:18;108942.38;;;10.90;100.00
3844;BME280;1937;51.444;6.484;2022-12-26T01:14:10;109638.66;;;11.06;100.00
3844;BME280;1937;51.444;6.484;2022-12-26T01:16:39;108964.69;;;11.02;100.00
3844;BME280;1937;51.444;6.484;2022-12-26T01:19:09;108610.66;;;10.91;100.00
3844;BME280;1937;51.444;6.484;2022-12-26T01:21:39;108631.97;;;11.03;100.00
3844;BME280;1937;51.444;6.484;2022-12-26T01:24:09;107287.59;;;10.97;100.00
3844;BME280;1937;51.444;6.484;2022-12-26T01:26:37;107270.22;;;10.88;100.00
3844;BME280;1937;51.444;6.484;2022-12-26T01:29:05;107283.03;;;10.95;100.00
3844;BME280;1937;51.444;6.484;2022-12-26T01:31:35;107280.28;;;10.93;100.00
3844;BME280;1937;51.444;6.484;2022-12-26T01:34:05;106936.81;;;10.88;100.00
3844;BME280;1937;51.444;6.484;2022-12-26T01:36:34;106266.44;;;10.86;100.00
3844;BME280;1937;51.444;6.484;2022-12-26T01:39:02;106262.84;;;10.84;100.00
3844;BME280;1937;51.444;6.484;2022-12-26T01:41:31;106255.56;;;10.80;100.00
3844;BME280;1937;51.444;6.484;2022-12-26T01:44:01;105580.03;;;10.75;100.00
3844;BME280;1937;51.444;6.484;2022-12-26T01:46:33;105931.31;;;10.85;100.00
3844;BME280;1937;51.444;6.484;2022-12-26T01:49:11;105580.03;;;10.75;100.00
3844;BME280;1937;51.444;6.484;2022-12-26T01:51:43;105560.19;;;10.63;100.00
3844;BME280;1937;51.444;6.484;2022-12-26T01:54:14;106252.81;;;10.78;100.00
3844;BME280;1937;51.444;6.484;2022-12-26T01:56:44;106249.22;;;10.76;100.00
3844;BME280;1937;51.444;6.484;2022-12-26T01:59:17;105246.84;;;10.75;100.00
3844;BME280;1937;51.444;6.484;2022-12-26T02:01:48;104580.59;;;10.75;100.00
3844;BME280;1937;51.444;6.484;2022-12-26T02:04:25;104583.28;;;10.76;100.00
3844;BME280;1937;51.444;6.484;2022-12-26T02:07:08;105226.19;;;10.63;100.00
3844;BME280;1937;51.444;6.484;2022-12-26T02:09:38;105922.28;;;10.80;100.00
3844;BME280;1937;51.444;6.484;2022-12-26T02:12:10;105225.28;;;10.62;100.00
3844;BME280;1937;51.444;6.484;2022-12-26T02:14:41;105912.34;;;10.74;100.00
3844;BME280;1937;51.444;6.484;2022-12-26T02:17:10;105217.19;;;10.58;100.00
3844;BME280;1937;51.444;6.484;2022-12-26T02:19:45;105894.25;;;10.64;100.00
3844;BME280;1937;51.444;6.484;2022-12-26T02:22:35;106245.56;;;10.74;100.00
3844;BME280;1937;51.444;6.484;2022-12-26T02:25:33;105236.06;;;10.68;100.00
3844;BME280;1937;51.444;6.484;2022-12-26T02:28:28;105543.09;;;10.54;100.00
3844;BME280;1937;51.444;6.484;2022-12-26T02:31:09;106872.91;;;10.52;100.00
3844;BME280;1937;51.444;6.484;2022-12-26T02:33:50;107226.25;;;10.63;100.00
3844;BME280;1937;51.444;6.484;2022-12-26T02:39:22;106557.91;;;10.62;100.00
3844;BME280;1937;51.444;6.484;2022-12-26T02:42:03;105867.09;;;10.49;100.00
3844;BME280;1937;51.444;6.484;2022-12-26T02:44:42;107210.66;;;10.55;100.00
3844;BME280;1937;51.444;6.484;2022-12-26T02:47:38;107543.94;;;10.55;100.00
3844;BME280;1937;51.444;6.484;2022-12-26T02:50:15;106881.09;;;10.57;100.00
3844;BME280;1937;51.444;6.484;2022-12-26T02:53:23;105877.97;;;10.55;100.00
3844;BME280;1937;51.444;6.484;2022-12-26T02:56:17;105510.63;;;10.36;100.00
3844;BME280;1937;51.444;6.484;2022-12-26T02:59:11;106831.84;;;10.30;100.00
3844;BME280;1937;51.444;6.484;2022-12-26T03:02:02;107191.44;;;10.44;100.00
3844;BME280;1937;51.444;6.484;2022-12-26T03:04:52;106187.53;;;10.42;100.00
3844;BME280;1937;51.444;6.484;2022-12-26T03:07:41;106532.44;;;10.48;100.00
3844;BME280;1937;51.444;6.484;2022-12-26T03:10:33;106210.19;;;10.54;100.00
3844;BME280;1937;51.444;6.484;2022-12-26T03:13:23;104856.38;;;10.42;100.00
3844;BME280;1937;51.444;6.484;2022-12-26T03:15:56;105162.38;;;10.27;100.00
3844;BME280;1937;51.444;6.484;2022-12-26T03:18:48;106169.38;;;10.32;100.00
3844;BME280;1937;51.444;6.484;2022-12-26T03:21:24;106519.72;;;10.41;100.00
3844;BME280;1937;51.444;6.484;2022-12-26T03:23:54;105166.88;;;10.30;100.00
3844;BME280;1937;51.444;6.484;2022-12-26T03:26:27;105162.38;;;10.27;100.00
3844;BME280;1937;51.444;6.484;2022-12-26T03:29:12;105164.19;;;10.28;100.00
3844;BME280;1937;51.444;6.484;2022-12-26T03:32:00;104839.34;;;10.33;100.00
3844;BME280;1937;51.444;6.484;2022-12-26T03:34:29;104168.28;;;10.30;100.00
3844;BME280;1937;51.444;6.484;2022-12-26T03:37:33;103510.69;;;10.34;100.00
3844;BME280;1937;51.444;6.484;2022-12-26T03:40:11;102507.22;;;10.31;100.00
3844;BME280;1937;51.444;6.484;2022-12-26T03:43:08;101470.31;;;10.08;100.00
3844;BME280;1937;51.444;6.484;2022-12-26T03:46:01;101808.88;;;10.12;100.00
3844;BME280;1937;51.444;6.484;2022-12-26T03:49:00;102485.34;;;10.18;100.00
3844;BME280;1937;51.444;6.484;2022-12-26T03:51:55;101488.59;;;10.19;100.00
3844;BME280;1937;51.444;6.484;2022-12-26T03:54:50;100799.47;;;10.05;100.00
3844;BME280;1937;51.444;6.484;2022-12-26T03:57:43;101810.63;;;10.13;100.00
3844;BME280;1937;51.444;6.484;2022-12-26T04:00:33;102502.88;;;10.29;100.00
3844;BME280;1937;51.444;6.484;2022-12-26T04:03:23;102165.84;;;10.26;100.00
3844;BME280;1937;51.444;6.484;2022-12-26T04:06:15;101825.44;;;10.21;100.00
3844;BME280;1937;51.444;6.484;2022-12-26T04:09:06;101832.38;;;10.25;100.00
3844;BME280;1937;51.444;6.484;2022-12-26T04:11:57;100803.75;;;10.07;100.00
3844;BME280;1937;51.444;6.484;2022-12-26T04:14:47;101121.47;;;9.99;100.00
3844;BME280;1937;51.444;6.484;2022-12-26T04:17:45;102137.00;;;10.09;100.00
3844;BME280;1937;51.444;6.484;2022-12-26T04:20:35;101136.16;;;10.07;100.00
3844;BME280;1937;51.444;6.484;2022-12-26T04:23:09;101140.47;;;10.10;100.00
3844;BME280;1937;51.444;6.484;2022-12-26T04:26:03;101139.59;;;10.09;100.00
3844;BME280;1937;51.444;6.484;2022-12-26T04:28:52;101132.69;;;10.05;100.00
3844;BME280;1937;51.444;6.484;2022-12-26T04:31:44;101121.47;;;9.99;100.00
3844;BME280;1937;51.444;6.484;2022-12-26T04:34:37;102125.66;;;10.03;100.00
3844;BME280;1937;51.444;6.484;2022-12-26T04:37:25;100764.13;;;9.84;100.00
3844;BME280;1937;51.444;6.484;2022-12-26T04:40:18;102140.50;;;10.11;100.00
3844;BME280;1937;51.444;6.484;2022-12-26T04:43:05;100107.41;;;9.89;100.00
3844;BME280;1937;51.444;6.484;2022-12-26T04:45:55;101477.25;;;10.12;100.00
3844;BME280;1937;51.444;6.484;2022-12-26T04:48:24;99463.47;;;10.01;100.00
3844;BME280;1937;51.444;6.484;2022-12-26T04:51:10;99701.75;;;9.86;100.00
3844;BME280;1937;51.444;6.484;2022-12-26T04:53:38;99737.50;;;9.74;100.00
3844;BME280;1937;51.444;6.484;2022-12-26T04:56:08;101445.16;;;9.94;100.00
3844;BME280;1937;51.444;6.484;2022-12-26T04:58:38;100773.59;;;9.90;100.00
3844;BME280;1937;51.444;6.484;2022-12-26T05:01:08;99082.53;;;9.84;100.00
3844;BME280;1937;51.444;6.484;2022-12-26T05:03:54;99774.38;;;9.88;100.00
3844;BME280;1937;51.444;6.484;2022-12-26T05:06:52;99769.22;;;9.85;100.00
3844;BME280;1937;51.444;6.484;2022-12-26T05:09:38;100035.59;;;9.89;100.00
3844;BME280;1937;51.444;6.484;2022-12-26T05:12:08;98563.19;;;9.76;100.00
3844;BME280;1937;51.444;6.484;2022-12-26T05:14:36;99283.84;;;9.62;100.00
3844;BME280;1937;51.444;6.484;2022-12-26T05:17:07;98802.47;;;10.03;100.00
3844;BME280;1937;51.444;6.484;2022-12-26T05:19:53;96902.44;;;10.05;100.00
3844;BME280;1937;51.444;6.484;2022-12-26T05:22:40;94564.56;;;9.81;100.00
3844;BME280;1937;51.444;6.484;2022-12-26T05:25:29;95377.78;;;9.86;100.00
3844;BME280;1937;51.444;6.484;2022-12-26T05:28:17;94502.69;;;9.86;100.00
3844;BME280;1937;51.444;6.484;2022-12-26T05:31:03;94562.13;;;9.88;100.00
3844;BME280;1937;51.444;6.484;2022-12-26T05:33:33;94019.91;;;9.94;100.00
3844;BME280;1937;51.444;6.484;2022-12-26T05:36:20;93663.97;;;9.95;100.00
3844;BME280;1937;51.444;6.484;2022-12-26T05:38:50;93266.41;;;9.98;100.00
3844;BME280;1937;51.444;6.484;2022-12-26T05:41:20;92256.09;;;9.74;100.00
3844;BME280;1937;51.444;6.484;2022-12-26T05:43:48;92142.09;;;9.81;100.00
3844;BME280;1937;51.444;6.484;2022-12-26T05:46:16;92328.31;;;9.82;100.00
3844;BME280;1937;51.444;6.484;2022-12-26T05:48:46;92637.06;;;9.78;100.00
3844;BME280;1937;51.444;6.484;2022-12-26T05:51:14;91872.31;;;9.67;100.00
3844;BME280;1937;51.444;6.484;2022-12-26T05:53:43;91992.28;;;9.73;100.00
3844;BME280;1937;51.444;6.484;2022-12-26T05:56:13;92052.84;;;9.83;100.00
3844;BME280;1937;51.444;6.484;2022-12-26T05:58:43;91103.38;;;9.64;100.00
3844;BME280;1937;51.444;6.484;2022-12-26T06:01:14;91929.50;;;9.66;100.00
3844;BME280;1937;51.444;6.484;2022-12-26T06:03:45;91660.16;;;9.72;100.00
3844;BME280;1937;51.444;6.484;2022-12-26T06:06:16;91967.63;;;9.70;100.00
3844;BME280;1937;51.444;6.484;2022-12-26T06:08:44;92041.25;;;9.74;100.00
3844;BME280;1937;51.444;6.484;2022-12-26T06:11:15;92235.06;;;9.71;100.00
3844;BME280;1937;51.444;6.484;2022-12-26T06:13:44;92012.66;;;9.69;100.00
3844;BME280;1937;51.444;6.484;2022-12-26T06:16:14;92046.53;;;9.68;100.00
3844;BME280;1937;51.444;6.484;2022-12-26T06:18:44;91937.91;;;9.73;100.00
3844;BME280;1937;51.444;6.484;2022-12-26T06:21:15;91034.50;;;9.58;100.00
3844;BME280;1937;51.444;6.484;2022-12-26T06:23:44;91305.50;;;9.67;100.00
3844;BME280;1937;51.444;6.484;2022-12-26T06:26:13;91347.66;;;9.63;100.00
3844;BME280;1937;51.444;6.484;2022-12-26T06:28:42;90686.81;;;9.54;100.00
3844;BME280;1937;51.444;6.484;2022-12-26T06:31:13;91055.50;;;9.66;100.00
3844;BME280;1937;51.444;6.484;2022-12-26T06:33:42;91390.56;;;9.59;100.00
3844;BME280;1937;51.444;6.484;2022-12-26T06:36:13;91290.72;;;9.63;100.00
3844;BME280;1937;51.444;6.484;2022-12-26T06:38:43;91174.47;;;9.56;100.00
3844;BME280;1937;51.444;6.484;2022-12-26T06:41:13;91673.06;;;9.56;100.00
3844;BME280;1937;51.444;6.484;2022-12-26T06:43:42;92578.59;;;9.70;100.00
3844;BME280;1937;51.444;6.484;2022-12-26T06:46:14;91530.28;;;9.59;100.00
3844;BME280;1937;51.444;6.484;2022-12-26T06:48:43;91609.94;;;9.57;100.00
3844;BME280;1937;51.444;6.484;2022-12-26T06:51:13;92603.09;;;9.68;100.00
3844;BME280;1937;51.444;6.484;2022-12-26T06:53:44;91781.31;;;9.59;100.00
3844;BME280;1937;51.444;6.484;2022-12-26T06:56:15;92476.53;;;9.60;100.00
3844;BME280;1937;51.444;6.484;2022-12-26T06:58:44;92740.94;;;9.63;100.00
3844;BME280;1937;51.444;6.484;2022-12-26T07:01:14;92405.34;;;9.69;100.00
3844;BME280;1937;51.444;6.484;2022-12-26T07:03:43;92281.41;;;9.72;100.00
3844;BME280;1937;51.444;6.484;2022-12-26T07:06:18;91593.91;;;9.71;100.00
3844;BME280;1937;51.444;6.484;2022-12-26T07:08:49;91772.66;;;9.81;100.00
3844;BME280;1937;51.444;6.484;2022-12-26T07:11:20;91605.66;;;9.79;100.00
3844;BME280;1937;51.444;6.484;2022-12-26T07:13:49;92278.31;;;9.82;100.00
3844;BME280;1937;51.444;6.484;2022-12-26T07:16:18;92198.25;;;9.69;100.00
3844;BME280;1937;51.444;6.484;2022-12-26T07:18:46;92864.38;;;9.76;100.00
3844;BME280;1937;51.444;6.484;2022-12-26T07:21:16;92895.41;;;9.82;100.00
3844;BME280;1937;51.444;6.484;2022-12-26T07:23:45;93192.47;;;10.02;100.00
3844;BME280;1937;51.444;6.484;2022-12-26T07:26:15;92843.34;;;9.97;100.00
3844;BME280;1937;51.444;6.484;2022-12-26T07:28:43;92575.75;;;9.97;100.00
3844;BME280;1937;51.444;6.484;2022-12-26T07:31:16;92846.72;;;10.04;100.00
3844;BME280;1937;51.444;6.484;2022-12-26T07:33:48;93161.97;;;10.10;100.00
3844;BME280;1937;51.444;6.484;2022-12-26T07:36:17;92807.38;;;10.14;100.00
3844;BME280;1937;51.444;6.484;2022-12-26T07:38:47;92560.03;;;10.23;100.00
3844;BME280;1937;51.444;6.484;2022-12-26T07:41:16;91031.78;;;10.16;100.00
3844;BME280;1937;51.444;6.484;2022-12-26T07:44:02;90495.19;;;10.30;100.00
3844;BME280;1937;51.444;6.484;2022-12-26T07:46:32;88821.28;;;10.27;100.00
3844;BME280;1937;51.444;6.484;2022-12-26T07:49:01;87489.53;;;10.26;100.00
3844;BME280;1937;51.444;6.484;2022-12-26T07:51:29;85814.41;;;10.18;100.00
3844;BME280;1937;51.444;6.484;2022-12-26T07:53:58;85358.19;;;10.19;100.00
3844;BME280;1937;51.444;6.484;2022-12-26T07:56:28;84757.41;;;10.29;100.00
3844;BME280;1937;51.444;6.484;2022-12-26T07:58:58;84245.91;;;10.27;100.00
3844;BME280;1937;51.444;6.484;2022-12-26T08:01:27;83612.03;;;10.33;100.00
3844;BME280;1937;51.444;6.484;2022-12-26T08:03:56;83255.88;;;10.37;100.00
3844;BME280;1937;51.444;6.484;2022-12-26T08:06:24;82893.44;;;10.27;100.00
3844;BME280;1937;51.444;6.484;2022-12-26T08:08:52;82583.34;;;10.27;100.00
3844;BME280;1937;51.444;6.484;2022-12-26T08:11:23;81796.06;;;10.27;100.00
3844;BME280;1937;51.444;6.484;2022-12-26T08:13:53;81440.50;;;10.30;100.00
3844;BME280;1937;51.444;6.484;2022-12-26T08:16:21;81133.00;;;10.22;100.00
3844;BME280;1937;51.444;6.484;2022-12-26T08:18:50;81238.16;;;10.41;100.00
3844;BME280;1937;51.444;6.484;2022-12-26T08:21:18;80832.50;;;10.33;100.00
3844;BME280;1937;51.444;6.484;2022-12-26T08:23:46;80768.63;;;10.34;100.00
3844;BME280;1937;51.444;6.484;2022-12-26T08:26:15;80697.59;;;10.40;100.00
3844;BME280;1937;51.444;6.484;2022-12-26T08:28:48;80118.84;;;10.46;100.00
3844;BME280;1937;51.444;6.484;2022-12-26T08:31:20;79889.00;;;10.46;100.00
3844;BME280;1937;51.444;6.484;2022-12-26T08:33:49;79637.50;;;10.41;100.00
3844;BME280;1937;51.444;6.484;2022-12-26T08:36:18;79360.97;;;10.47;100.00
3844;BME280;1937;51.444;6.484;2022-12-26T08:38:47;79550.22;;;10.40;100.00
3844;BME280;1937;51.444;6.484;2022-12-26T08:41:16;79526.06;;;10.45;100.00
3844;BME280;1937;51.444;6.484;2022-12-26T08:43:50;79247.31;;;10.37;100.00
3844;BME280;1937;51.444;6.484;2022-12-26T08:46:22;79544.31;;;10.47;100.00
3844;BME280;1937;51.444;6.484;2022-12-26T08:48:51;79712.84;;;10.47;100.00
3844;BME280;1937;51.444;6.484;2022-12-26T08:51:22;79735.78;;;10.60;100.00
3844;BME280;1937;51.444;6.484;2022-12-26T08:53:52;79346.59;;;10.63;100.00
3844;BME280;1937;51.444;6.484;2022-12-26T08:56:24;78840.50;;;10.65;100.00
3844;BME280;1937;51.444;6.484;2022-12-26T08:58:53;78617.59;;;10.62;100.00
3844;BME280;1937;51.444;6.484;2022-12-26T09:01:24;78510.81;;;10.58;100.00
3844;BME280;1937;51.444;6.484;2022-12-26T09:03:54;78138.16;;;10.53;100.00
3844;BME280;1937;51.444;6.484;2022-12-26T09:06:24;77918.50;;;10.49;100.00
3844;BME280;1937;51.444;6.484;2022-12-26T09:08:53;77493.47;;;10.38;100.00
3844;BME280;1937;51.444;6.484;2022-12-26T09:11:23;77538.69;;;10.39;100.00
3844;BME280;1937;51.444;6.484;2022-12-26T09:13:54;77444.28;;;10.34;100.00
3844;BME280;1937;51.444;6.484;2022-12-26T09:16:27;77248.63;;;10.29;100.00
3844;BME280;1937;51.444;6.484;2022-12-26T09:18:59;77382.94;;;10.33;100.00
3844;BME280;1937;51.444;6.484;2022-12-26T09:21:29;77488.25;;;10.36;100.00
3844;BME280;1937;51.444;6.484;2022-12-26T09:23:58;77408.41;;;10.40;100.00
3844;BME280;1937;51.444;6.484;2022-12-26T09:26:28;77295.53;;;10.41;100.00
3844;BME280;1937;51.444;6.484;2022-12-26T09:28:57;77243.25;;;10.58;100.00
3844;BME280;1937;51.444;6.484;2022-12-26T09:31:29;76739.41;;;10.61;100.00
3844;BME280;1937;51.444;6.484;2022-12-26T09:33:58;76522.91;;;10.74;100.00
3844;BME280;1937;51.444;6.484;2022-12-26T09:36:30;75635.00;;;10.65;100.00
3844;BME280;1937;51.444;6.484;2022-12-26T09:39:00;75626.72;;;10.77;100.00
3844;BME280;1937;51.444;6.484;2022-12-26T09:41:53;75104.16;;;10.80;100.00
3844;BME280;1937;51.444;6.484;2022-12-26T09:44:34;74689.44;;;10.68;100.00
3844;BME280;1937;51.444;6.484;2022-12-26T09:47:13;74451.41;;;10.76;100.00
3844;BME280;1937;51.444;6.484;2022-12-26T09:49:56;74281.03;;;10.84;100.00
3844;BME280;1937;51.444;6.484;2022-12-26T09:52:36;73994.00;;;10.86;100.00
3844;BME280;1937;51.444;6.484;2022-12-26T09:55:17;73977.75;;;11.26;100.00
3844;BME280;1937;51.444;6.484;2022-12-26T09:57:50;73569.44;;;11.44;98.91
3844;BME280;1937;51.444;6.484;2022-12-26T10:00:22;72840.69;;;11.46;97.23
3844;BME280;1937;51.444;6.484;2022-12-26T10:02:57;72548.25;;;11.33;97.49
3844;BME280;1937;51.444;6.484;2022-12-26T10:05:29;72443.97;;;11.28;98.45
3844;BME280;1937;51.444;6.484;2022-12-26T10:08:05;72318.78;;;11.14;98.15
3844;BME280;1937;51.444;6.484;2022-12-26T10:10:43;72364.69;;;11.12;97.91
3844;BME280;1937;51.444;6.484;2022-12-26T10:13:20;72431.50;;;11.18;98.57
3844;BME280;1937;51.444;6.484;2022-12-26T10:15:55;72281.63;;;11.09;98.50
3844;BME280;1937;51.444;6.484;2022-12-26T10:18:35;72295.63;;;11.27;97.77
3844;BME280;1937;51.444;6.484;2022-12-26T10:21:17;71972.63;;;11.24;97.29
3844;BME280;1937;51.444;6.484;2022-12-26T10:23:50;71882.81;;;11.27;97.38
3844;BME280;1937;51.444;6.484;2022-12-26T10:26:26;71964.75;;;11.39;96.71
3844;BME280;1937;51.444;6.484;2022-12-26T10:29:01;71520.28;;;11.28;96.03
3844;BME280;1937;51.444;6.484;2022-12-26T10:31:36;71486.59;;;11.19;96.69
3844;BME280;1937;51.444;6.484;2022-12-26T10:34:15;71379.13;;;11.26;95.45
3844;BME280;1937;51.444;6.484;2022-12-26T10:36:47;71283.69;;;11.26;95.48
3844;BME280;1937;51.444;6.484;2022-12-26T10:39:19;71334.44;;;11.19;96.47
3844;BME280;1937;51.444;6.484;2022-12-26T10:41:53;71390.56;;;11.40;95.30
3844;BME280;1937;51.444;6.484;2022-12-26T10:44:23;71296.94;;;11.41;95.01
3844;BME280;1937;51.444;6.484;2022-12-26T10:46:59;71279.31;;;11.55;95.21
3844;BME280;1937;51.444;6.484;2022-12-26T10:49:32;71083.81;;;11.55;93.99
3844;BME280;1937;51.444;6.484;2022-12-26T10:52:02;71008.78;;;11.48;94.34
3844;BME280;1937;51.444;6.484;2022-12-26T10:54:31;70924.91;;;11.58;93.69
3844;BME280;1937;51.444;6.484;2022-12-26T10:57:00;70727.72;;;11.55;93.64
3844;BME280;1937;51.444;6.484;2022-12-26T10:59:37;70729.81;;;11.44;93.11
3844;BME280;1937;51.444;6.484;2022-12-26T11:02:21;70740.47;;;11.57;93.38
3844;BME280;1937;51.444;6.484;2022-12-26T11:05:02;70595.22;;;11.50;93.38
3844;BME280;1937;51.444;6.484;2022-12-26T11:07:33;70612.38;;;11.62;92.72
3844;BME280;1937;51.444;6.484;2022-12-26T11:10:04;70361.72;;;11.25;93.70
3844;BME280;1937;51.444;6.484;2022-12-26T11:12:38;70461.69;;;11.42;92.61
3844;BME280;1937;51.444;6.484;2022-12-26T11:15:17;70453.66;;;11.29;94.11
3844;BME280;1937;51.444;6.484;2022-12-26T11:17:49;70443.03;;;11.16;93.51
3844;BME280;1937;51.444;6.484;2022-12-26T11:20:26;70567.13;;;11.12;94.78
3844;BME280;1937;51.444;6.484;2022-12-26T11:22:55;70581.06;;;11.32;94.07
3844;BME280;1937;51.444;6.484;2022-12-26T11:25:49;70569.72;;;11.29;94.53
3844;BME280;1937;51.444;6.484;2022-12-26T11:28:24;70518.59;;;11.23;94.03
3844;BME280;1937;51.444;6.484;2022-12-26T11:30:53;70410.16;;;10.90;94.79
3844;BME280;1937;51.444;6.484;2022-12-26T11:33:26;70601.66;;;10.97;95.96
3844;BME280;1937;51.444;6.484;2022-12-26T11:36:02;70677.50;;;11.00;95.70
3844;BME280;1937;51.444;6.484;2022-12-26T11:38:39;70724.16;;;11.24;94.27
3844;BME280;1937;51.444;6.484;2022-12-26T11:41:14;70583.19;;;11.21;94.79
3844;BME280;1937;51.444;6.484;2022-12-26T11:44:25;70684.63;;;11.62;93.50
3844;BME280;1937;51.444;6.484;2022-12-26T11:46:59;70533.13;;;11.69;92.55
3844;BME280;1937;51.444;6.484;2022-12-26T11:49:32;70434.28;;;11.79;92.42
3844;BME280;1937;51.444;6.484;2022-12-26T11:54:52;70181.41;;;12.34;88.78
3844;BME280;1937;51.444;6.484;2022-12-26T11:57:22;69996.63;;;12.19;88.25
3844;BME280;1937;51.444;6.484;2022-12-26T11:59:54;69787.59;;;12.11;87.27
3844;BME280;1937;51.444;6.484;2022-12-26T12:02:42;69706.19;;;12.12;87.54
3844;BME280;1937;51.444;6.484;2022-12-26T12:05:15;69713.22;;;12.26;87.27
3844;BME280;1937;51.444;6.484;2022-12-26T12:08:01;69679.38;;;11.87;89.87
3844;BME280;1937;51.444;6.484;2022-12-26T12:10:44;69619.59;;;10.69;93.81
3844;BME280;1937;51.444;6.484;2022-12-26T12:13:24;69711.13;;;10.07;96.90
3844;BME280;1937;51.444;6.484;2022-12-26T12:15:58;70385.09;;;9.77;100.00
3844;BME280;1937;51.444;6.484;2022-12-26T12:18:36;71226.28;;;9.58;100.00
3844;BME280;1937;51.444;6.484;2022-12-26T12:21:14;71716.31;;;9.71;100.00
3844;BME280;1937;51.444;6.484;2022-12-26T12:26:48;73043.44;;;9.83;100.00
3844;BME280;1937;51.444;6.484;2022-12-26T12:29:35;73652.22;;;9.94;100.00
3844;BME280;1937;51.444;6.484;2022-12-26T12:32:10;74037.56;;;9.77;100.00
3844;BME280;1937;51.444;6.484;2022-12-26T12:34:59;73933.47;;;9.64;100.00
3844;BME280;1937;51.444;6.484;2022-12-26T12:37:38;73794.25;;;9.74;100.00
3844;BME280;1937;51.444;6.484;2022-12-26T12:40:24;73504.41;;;9.81;100.00
3844;BME280;1937;51.444;6.484;2022-12-26T12:43:04;73720.75;;;9.79;100.00
3844;BME280;1937;51.444;6.484;2022-12-26T12:45:34;74002.59;;;9.90;100.00
3844;BME280;1937;51.444;6.484;2022-12-26T12:48:16;73585.72;;;9.72;100.00
3844;BME280;1937;51.444;6.484;2022-12-26T12:50:54;73470.28;;;9.54;100.00
3844;BME280;1937;51.444;6.484;2022-12-26T12:53:42;73069.22;;;9.37;100.00
3844;BME280;1937;51.444;6.484;2022-12-26T12:56:21;72419.94;;;9.62;99.77
3844;BME280;1937;51.444;6.484;2022-12-26T12:58:59;71689.09;;;8.98;100.00
3844;BME280;1937;51.444;6.484;2022-12-26T13:01:34;71781.88;;;9.07;100.00
3844;BME280;1937;51.444;6.484;2022-12-26T13:04:07;71940.72;;;9.04;100.00
3844;BME280;1937;51.444;6.484;2022-12-26T13:06:41;71066.53;;;9.19;95.18
3844;BME280;1937;51.444;6.484;2022-12-26T13:09:15;69987.66;;;9.11;91.26
3844;BME280;1937;51.444;6.484;2022-12-26T13:11:48;69624.09;;;9.34;90.00
3844;BME280;1937;51.444;6.484;2022-12-26T13:14:21;69323.09;;;9.23;89.93
3844;BME280;1937;51.444;6.484;2022-12-26T13:16:53;69314.47;;;9.11;91.01
3844;BME280;1937;51.444;6.484;2022-12-26T13:19:27;69373.94;;;9.07;91.70
3844;BME280;1937;51.444;6.484;2022-12-26T13:22:02;69336.22;;;9.12;91.07
3844;BME280;1937;51.444;6.484;2022-12-26T13:24:35;69337.63;;;8.96;93.03
3844;BME280;1937;51.444;6.484;2022-12-26T13:27:13;69521.72;;;8.91;94.38
3844;BME280;1937;51.444;6.484;2022-12-26T13:29:45;69647.38;;;9.17;94.18
3844;BME280;1937;51.444;6.484;2022-12-26T13:32:18;69672.53;;;9.08;95.05
3844;BME280;1937;51.444;6.484;2022-12-26T13:34:48;69785.75;;;9.06;95.18
3844;BME280;1937;51.444;6.484;2022-12-26T13:40:23;69722.16;;;8.97;96.22
3844;BME280;1937;51.444;6.484;2022-12-26T13:42:56;69755.94;;;8.85;96.27
3844;BME280;1937;51.444;6.484;2022-12-26T13:45:49;69653.09;;;8.78;95.49
3844;BME280;1937;51.444;6.484;2022-12-26T13:48:55;69613.78;;;8.65;95.19
3844;BME280;1937;51.444;6.484;2022-12-26T13:51:52;69706.16;;;8.97;93.60
3844;BME280;1937;51.444;6.484;2022-12-26T13:54:24;69475.41;;;8.84;93.36
3844;BME280;1937;51.444;6.484;2022-12-26T13:57:11;69492.19;;;8.83;93.86
3844;BME280;1937;51.444;6.484;2022-12-26T13:59:44;69489.03;;;8.83;94.03
3844;BME280;1937;51.444;6.484;2022-12-26T14:02:29;69493.88;;;8.78;93.83
3844;BME280;1937;51.444;6.484;2022-12-26T14:05:24;69495.69;;;8.65;94.78
3844;BME280;1937;51.444;6.484;2022-12-26T14:07:59;69408.69;;;8.54;94.89
3844;BME280;1937;51.444;6.484;2022-12-26T14:10:37;69387.47;;;8.47;95.03